Chanthaburi, Thailand

2:15 AM ICT on July 13, 2014 (GMT +0700)
U-Taphao International (VTBU) Elev 39 ft | 12.68 °N, 101.00 °E | Change Station

Current weather conditions updated 15 minutes ago

Mostly Cloudy
Mostly Cloudy
82 °F
Feels Like 91 °F
N
9
Wind Variable Wind from West

Today is forecast to be Cooler than yesterday. Thunderstorms.

Today
High -- | Low -- °F
--% Chance of Precip.
Yesterday
High -- | Low -- °F
Precip. -- in
5:52 AM 6:41 PM
Full, 100% visible
Pressure 29.68 in
Visibility 6.2 miles
Clouds Few 2000 ft
Mostly Cloudy 30000 ft
Heat Index 91 °F
Dew Point 77 °F
Humidity 84%
Rainfall 0.00 in
Snow Depth Not available.
UV 0 out of 12
Pollen Not available.
Air Quality Not available.
Flu Activity Not available.
METAR VTBU 121900Z 26008KT 9999 FEW020 BKN300 28/25 Q1005 A2970

More Conditions Fewer Conditions

Pressure 29.68 in
Visibility 6.2 miles
Clouds Few 2000 ft
Mostly Cloudy 30000 ft
Heat Index 91 °F
Dew Point 77 °F
Humidity 84%
Rainfall 0.00 in
Snow Depth Not available.
UV 0 out of 12
Pollen Not available.
Air Quality Not available.
Flu Activity Not available.
METAR VTBU 121900Z 26008KT 9999 FEW020 BKN300 28/25 Q1005 A2970

More Conditions Fewer Conditions

10-Day Weather Forecast

Almanac

Astronomy

Jul. 13, 2014 Rise Set
Actual Time 5:52 AM ICT 6:41 PM ICT
Civil Twilight 5:29 AM ICT 7:04 PM ICT
Nautical Twilight 5:02 AM ICT 7:31 PM ICT
Astronomical Twilight 4:35 AM ICT 7:59 PM ICT
Moon 7:27 PM ICT (7/13) 6:28 AM ICT (7/13)
Length of Visible Light 13h 34m
Length of Day
12h 48m
Tomorrow will be 0m 18s shorter.
Full, 100% of the Moon is Illuminated
Jul 12
Full
Jul 18
Last Quarter
Jul 26
New
Aug 3
First Quarter
Aug 10
Full

Yesterday's Extremes

Country Highs Country Lows

Community

WunderPhotos

Upload Photos

1,732,928 photos uploaded!

WunderBlogs® & News

Nearby

Snow Depth

Not available.

Earthquake Activity

City Distance Mag. Time & Date
No recent earthquake activity has been reported nearby.
Minimum magnitude displayed is 2.5.

Coastal Water Temperatures

Place Temperature
No Stations Reporting

Nearby Weather Stations

There are no personal weather stations in this area.